sensor_id;sensor_type;location;lat;lon;timestamp;pressure;altitude;pressure_sealevel;temperature;humidity
31225;BME280;17847;31.524;74.366;2024-03-23T00:54:42;98293.78;;;20.41;100.00
31225;BME280;17847;31.524;74.366;2024-03-23T00:57:10;98301.06;;;20.41;100.00
31225;BME280;17847;31.524;74.366;2024-03-23T00:59:38;98299.97;;;20.37;100.00
31225;BME280;17847;31.524;74.366;2024-03-23T01:02:06;98301.03;;;20.36;100.00
31225;BME280;17847;31.524;74.366;2024-03-23T01:04:33;98312.59;;;20.36;100.00
31225;BME280;17847;31.524;74.366;2024-03-23T01:07:01;98314.22;;;20.37;100.00
31225;BME280;17847;31.524;74.366;2024-03-23T01:09:28;98323.13;;;20.38;100.00
31225;BME280;17847;31.524;74.366;2024-03-23T01:11:56;98321.47;;;20.32;100.00
31225;BME280;17847;31.524;74.366;2024-03-23T01:14:24;98322.28;;;20.32;100.00
31225;BME280;17847;31.524;74.366;2024-03-23T01:16:52;98330.28;;;20.27;100.00
31225;BME280;17847;31.524;74.366;2024-03-23T01:19:20;98334.13;;;20.31;100.00
31225;BME280;17847;31.524;74.366;2024-03-23T01:21:47;98336.81;;;20.31;100.00
31225;BME280;17847;31.524;74.366;2024-03-23T01:24:16;98342.47;;;20.35;100.00
31225;BME280;17847;31.524;74.366;2024-03-23T01:26:44;98344.88;;;20.36;100.00
31225;BME280;17847;31.524;74.366;2024-03-23T01:29:12;98352.44;;;20.34;100.00
31225;BME280;17847;31.524;74.366;2024-03-23T01:31:39;98341.63;;;20.29;100.00
31225;BME280;17847;31.524;74.366;2024-03-23T01:34:07;98343.28;;;20.35;100.00
31225;BME280;17847;31.524;74.366;2024-03-23T01:36:35;98353.50;;;20.38;100.00
31225;BME280;17847;31.524;74.366;2024-03-23T01:39:02;98346.78;;;20.41;100.00
31225;BME280;17847;31.524;74.366;2024-03-23T01:41:30;98347.88;;;20.45;100.00
31225;BME280;17847;31.524;74.366;2024-03-23T01:43:58;98351.38;;;20.50;100.00
31225;BME280;17847;31.524;74.366;2024-03-23T01:46:30;98357.34;;;20.57;100.00
31225;BME280;17847;31.524;74.366;2024-03-23T01:48:58;98350.06;;;20.63;100.00
31225;BME280;17847;31.524;74.366;2024-03-23T01:51:27;98356.53;;;20.67;100.00
31225;BME280;17847;31.524;74.366;2024-03-23T01:53:56;98360.09;;;21.08;100.00
31225;BME280;17847;31.524;74.366;2024-03-23T01:56:24;98359.59;;;21.31;100.00
31225;BME280;17847;31.524;74.366;2024-03-23T01:58:52;98360.63;;;21.71;97.26
31225;BME280;17847;31.524;74.366;2024-03-23T02:01:20;98362.66;;;22.29;94.40
31225;BME280;17847;31.524;74.366;2024-03-23T02:03:48;98369.78;;;22.59;92.51
31225;BME280;17847;31.524;74.366;2024-03-23T02:06:16;98372.66;;;22.83;92.10
31225;BME280;17847;31.524;74.366;2024-03-23T02:08:44;98377.03;;;23.13;89.64
31225;BME280;17847;31.524;74.366;2024-03-23T02:11:11;98378.78;;;23.33;88.20
31225;BME280;17847;31.524;74.366;2024-03-23T02:13:39;98382.16;;;23.53;88.15
31225;BME280;17847;31.524;74.366;2024-03-23T02:16:07;98387.78;;;23.86;84.13
31225;BME280;17847;31.524;74.366;2024-03-23T02:18:35;98382.00;;;23.97;81.47
31225;BME280;17847;31.524;74.366;2024-03-23T02:21:04;98391.59;;;23.85;81.98
31225;BME280;17847;31.524;74.366;2024-03-23T02:23:32;98388.63;;;23.81;82.80
31225;BME280;17847;31.524;74.366;2024-03-23T02:25:59;98383.31;;;23.76;83.27
31225;BME280;17847;31.524;74.366;2024-03-23T02:28:27;98399.44;;;23.81;81.58
31225;BME280;17847;31.524;74.366;2024-03-23T02:30:55;98392.22;;;24.00;82.47
31225;BME280;17847;31.524;74.366;2024-03-23T02:33:23;98405.13;;;24.08;81.34
31225;BME280;17847;31.524;74.366;2024-03-23T02:35:55;98404.66;;;24.01;81.96
31225;BME280;17847;31.524;74.366;2024-03-23T02:38:23;98403.44;;;24.12;80.42
31225;BME280;17847;31.524;74.366;2024-03-23T02:40:51;98414.44;;;24.26;79.64
31225;BME280;17847;31.524;74.366;2024-03-23T02:43:18;98410.81;;;24.36;79.38
31225;BME280;17847;31.524;74.366;2024-03-23T02:45:46;98413.91;;;24.48;80.78
31225;BME280;17847;31.524;74.366;2024-03-23T02:48:14;98422.44;;;24.60;77.50
31225;BME280;17847;31.524;74.366;2024-03-23T02:50:41;98424.50;;;24.44;77.92
31225;BME280;17847;31.524;74.366;2024-03-23T02:53:09;98425.84;;;24.47;78.56
31225;BME280;17847;31.524;74.366;2024-03-23T02:55:40;98433.66;;;24.48;78.15
31225;BME280;17847;31.524;74.366;2024-03-23T02:58:07;98437.06;;;24.59;78.66
31225;BME280;17847;31.524;74.366;2024-03-23T03:00:35;98436.94;;;24.69;80.52
31225;BME280;17847;31.524;74.366;2024-03-23T03:03:03;98443.09;;;24.75;80.21
31225;BME280;17847;31.524;74.366;2024-03-23T03:05:31;98442.22;;;24.79;80.78
31225;BME280;17847;31.524;74.366;2024-03-23T03:07:59;98449.97;;;24.91;78.09
31225;BME280;17847;31.524;74.366;2024-03-23T03:10:27;98444.63;;;25.04;76.92
31225;BME280;17847;31.524;74.366;2024-03-23T03:12:54;98451.94;;;25.23;77.37
31225;BME280;17847;31.524;74.366;2024-03-23T03:15:22;98456.25;;;25.24;78.40
31225;BME280;17847;31.524;74.366;2024-03-23T03:17:50;98460.59;;;25.43;75.55
31225;BME280;17847;31.524;74.366;2024-03-23T03:20:18;98460.50;;;25.48;78.35
31225;BME280;17847;31.524;74.366;2024-03-23T03:22:45;98470.09;;;25.41;75.99
31225;BME280;17847;31.524;74.366;2024-03-23T03:25:13;98473.53;;;25.46;74.73
31225;BME280;17847;31.524;74.366;2024-03-23T03:27:41;98471.28;;;25.35;73.98
31225;BME280;17847;31.524;74.366;2024-03-23T03:30:09;98466.56;;;25.40;76.48
31225;BME280;17847;31.524;74.366;2024-03-23T03:32:37;98465.19;;;25.24;73.60
31225;BME280;17847;31.524;74.366;2024-03-23T03:35:05;98470.63;;;25.24;76.34
31225;BME280;17847;31.524;74.366;2024-03-23T03:37:32;98475.69;;;25.31;75.90
31225;BME280;17847;31.524;74.366;2024-03-23T03:40:00;98481.75;;;25.41;77.19
31225;BME280;17847;31.524;74.366;2024-03-23T03:42:28;98486.75;;;25.53;80.00
31225;BME280;17847;31.524;74.366;2024-03-23T03:44:56;98488.94;;;25.51;73.24
31225;BME280;17847;31.524;74.366;2024-03-23T03:47:24;98486.81;;;25.48;75.95
31225;BME280;17847;31.524;74.366;2024-03-23T03:49:52;98490.44;;;25.62;73.75
31225;BME280;17847;31.524;74.366;2024-03-23T03:52:19;98496.78;;;25.71;73.31
31225;BME280;17847;31.524;74.366;2024-03-23T03:54:47;98497.28;;;25.73;73.57
31225;BME280;17847;31.524;74.366;2024-03-23T03:57:15;98492.47;;;25.70;73.40
31225;BME280;17847;31.524;74.366;2024-03-23T03:59:42;98494.16;;;25.66;71.29
31225;BME280;17847;31.524;74.366;2024-03-23T04:02:11;98498.09;;;25.74;72.42
31225;BME280;17847;31.524;74.366;2024-03-23T04:04:38;98487.22;;;25.92;75.60
31225;BME280;17847;31.524;74.366;2024-03-23T04:07:06;98487.63;;;26.00;72.93
31225;BME280;17847;31.524;74.366;2024-03-23T04:09:34;98481.91;;;26.01;76.04
31225;BME280;17847;31.524;74.366;2024-03-23T04:12:02;98481.94;;;26.15;81.95
31225;BME280;17847;31.524;74.366;2024-03-23T04:14:30;98489.91;;;26.25;78.53
31225;BME280;17847;31.524;74.366;2024-03-23T04:16:58;98482.22;;;26.46;76.27
31225;BME280;17847;31.524;74.366;2024-03-23T04:19:26;98491.47;;;26.45;73.28
31225;BME280;17847;31.524;74.366;2024-03-23T04:21:54;98494.56;;;26.65;70.42
31225;BME280;17847;31.524;74.366;2024-03-23T04:24:21;98494.38;;;26.75;68.49
31225;BME280;17847;31.524;74.366;2024-03-23T04:26:49;98493.78;;;26.92;69.73
31225;BME280;17847;31.524;74.366;2024-03-23T04:29:17;98480.28;;;26.87;73.68
31225;BME280;17847;31.524;74.366;2024-03-23T04:31:44;98488.25;;;26.97;70.01
31225;BME280;17847;31.524;74.366;2024-03-23T04:34:13;98494.94;;;27.13;68.57
31225;BME280;17847;31.524;74.366;2024-03-23T04:36:41;98494.13;;;27.26;69.67
31225;BME280;17847;31.524;74.366;2024-03-23T04:39:09;98493.72;;;27.33;69.49
31225;BME280;17847;31.524;74.366;2024-03-23T04:41:36;98486.97;;;27.66;73.19
31225;BME280;17847;31.524;74.366;2024-03-23T04:44:05;98486.84;;;27.72;67.30
31225;BME280;17847;31.524;74.366;2024-03-23T04:46:34;98485.09;;;27.98;65.48
31225;BME280;17847;31.524;74.366;2024-03-23T04:49:01;98479.03;;;28.01;69.10
31225;BME280;17847;31.524;74.366;2024-03-23T04:51:36;98478.94;;;27.84;61.55
31225;BME280;17847;31.524;74.366;2024-03-23T04:54:05;98477.94;;;27.80;61.00
31225;BME280;17847;31.524;74.366;2024-03-23T04:56:32;98466.75;;;27.81;61.26
31225;BME280;17847;31.524;74.366;2024-03-23T04:59:00;98471.13;;;27.68;58.50
31225;BME280;17847;31.524;74.366;2024-03-23T05:01:29;98465.44;;;27.79;58.85
31225;BME280;17847;31.524;74.366;2024-03-23T05:03:58;98468.66;;;27.81;61.94
31225;BME280;17847;31.524;74.366;2024-03-23T05:06:25;98468.50;;;28.08;60.54
31225;BME280;17847;31.524;74.366;2024-03-23T05:08:53;98473.66;;;28.09;55.89
31225;BME280;17847;31.524;74.366;2024-03-23T05:11:21;98475.38;;;28.28;54.51
31225;BME280;17847;31.524;74.366;2024-03-23T05:13:49;98475.88;;;28.38;59.94
31225;BME280;17847;31.524;74.366;2024-03-23T05:16:17;98473.53;;;28.45;55.85
31225;BME280;17847;31.524;74.366;2024-03-23T05:18:45;98487.31;;;28.88;58.50
31225;BME280;17847;31.524;74.366;2024-03-23T05:21:13;98489.38;;;28.83;55.67
31225;BME280;17847;31.524;74.366;2024-03-23T05:23:41;98492.78;;;28.88;55.14
31225;BME280;17847;31.524;74.366;2024-03-23T05:26:10;98498.47;;;29.43;55.89
31225;BME280;17847;31.524;74.366;2024-03-23T05:28:38;98504.28;;;29.68;53.88
31225;BME280;17847;31.524;74.366;2024-03-23T05:31:05;98505.56;;;29.87;54.72
31225;BME280;17847;31.524;74.366;2024-03-23T05:33:33;98504.13;;;29.90;51.96
31225;BME280;17847;31.524;74.366;2024-03-23T05:36:01;98503.16;;;29.95;55.32
31225;BME280;17847;31.524;74.366;2024-03-23T05:38:31;98492.53;;;30.02;53.99
31225;BME280;17847;31.524;74.366;2024-03-23T05:40:59;98498.16;;;29.88;53.88
31225;BME280;17847;31.524;74.366;2024-03-23T05:43:28;98488.94;;;30.27;51.78
31225;BME280;17847;31.524;74.366;2024-03-23T05:45:56;98486.31;;;30.48;54.04
31225;BME280;17847;31.524;74.366;2024-03-23T05:48:26;98493.53;;;30.52;51.33
31225;BME280;17847;31.524;74.366;2024-03-23T05:50:54;98488.44;;;30.80;53.43
31225;BME280;17847;31.524;74.366;2024-03-23T05:53:23;98493.94;;;30.63;52.24
31225;BME280;17847;31.524;74.366;2024-03-23T05:55:51;98494.88;;;30.75;53.87
31225;BME280;17847;31.524;74.366;2024-03-23T05:58:21;98497.66;;;30.67;47.38
31225;BME280;17847;31.524;74.366;2024-03-23T06:00:48;98495.25;;;30.65;48.11
31225;BME280;17847;31.524;74.366;2024-03-23T06:03:16;98481.22;;;30.75;47.51
31225;BME280;17847;31.524;74.366;2024-03-23T06:05:44;98478.63;;;31.00;47.91
31225;BME280;17847;31.524;74.366;2024-03-23T06:08:11;98473.53;;;30.90;55.15
31225;BME280;17847;31.524;74.366;2024-03-23T06:10:40;98474.50;;;31.02;47.60
31225;BME280;17847;31.524;74.366;2024-03-23T06:13:08;98468.94;;;30.82;47.29
31225;BME280;17847;31.524;74.366;2024-03-23T06:15:36;98462.47;;;30.86;47.98
31225;BME280;17847;31.524;74.366;2024-03-23T06:18:05;98461.38;;;31.08;50.13
31225;BME280;17847;31.524;74.366;2024-03-23T06:20:35;98474.94;;;30.75;48.07
31225;BME280;17847;31.524;74.366;2024-03-23T06:23:03;98466.81;;;30.87;48.37
31225;BME280;17847;31.524;74.366;2024-03-23T06:25:30;98465.28;;;30.98;53.46
31225;BME280;17847;31.524;74.366;2024-03-23T06:27:58;98466.63;;;30.92;48.77
31225;BME280;17847;31.524;74.366;2024-03-23T06:30:26;98469.50;;;30.96;51.60
31225;BME280;17847;31.524;74.366;2024-03-23T06:32:55;98466.94;;;30.91;46.83
31225;BME280;17847;31.524;74.366;2024-03-23T06:35:23;98472.00;;;30.80;42.25
31225;BME280;17847;31.524;74.366;2024-03-23T06:37:51;98463.88;;;30.63;42.19
31225;BME280;17847;31.524;74.366;2024-03-23T06:40:19;98454.97;;;31.04;48.97
31225;BME280;17847;31.524;74.366;2024-03-23T06:42:46;98465.72;;;31.09;44.25
31225;BME280;17847;31.524;74.366;2024-03-23T06:45:14;98456.34;;;31.18;50.18
31225;BME280;17847;31.524;74.366;2024-03-23T06:47:42;98460.06;;;31.14;46.76
31225;BME280;17847;31.524;74.366;2024-03-23T06:50:10;98455.53;;;31.39;41.27
31225;BME280;17847;31.524;74.366;2024-03-23T06:52:38;98451.66;;;31.40;41.25
31225;BME280;17847;31.524;74.366;2024-03-23T06:55:06;98448.31;;;31.13;41.64
31225;BME280;17847;31.524;74.366;2024-03-23T06:57:35;98451.91;;;30.76;43.88
31225;BME280;17847;31.524;74.366;2024-03-23T07:00:03;98452.13;;;30.71;38.91
31225;BME280;17847;31.524;74.366;2024-03-23T07:02:32;98445.78;;;30.79;39.53
31225;BME280;17847;31.524;74.366;2024-03-23T07:04:59;98437.44;;;30.75;45.44
31225;BME280;17847;31.524;74.366;2024-03-23T07:07:27;98452.66;;;30.85;43.55
31225;BME280;17847;31.524;74.366;2024-03-23T07:09:57;98458.53;;;30.75;40.61
31225;BME280;17847;31.524;74.366;2024-03-23T07:12:25;98451.50;;;30.65;39.58
31225;BME280;17847;31.524;74.366;2024-03-23T07:14:52;98452.72;;;30.76;44.64
31225;BME280;17847;31.524;74.366;2024-03-23T07:17:20;98454.56;;;30.64;38.94
31225;BME280;17847;31.524;74.366;2024-03-23T07:19:48;98450.50;;;30.70;40.30
31225;BME280;17847;31.524;74.366;2024-03-23T07:22:16;98453.69;;;30.72;35.81
31225;BME280;17847;31.524;74.366;2024-03-23T07:24:44;98441.72;;;30.56;38.72
31225;BME280;17847;31.524;74.366;2024-03-23T07:27:12;98432.50;;;30.69;42.38
31225;BME280;17847;31.524;74.366;2024-03-23T07:29:39;98429.38;;;30.50;44.32
31225;BME280;17847;31.524;74.366;2024-03-23T07:32:07;98424.47;;;30.26;45.58
31225;BME280;17847;31.524;74.366;2024-03-23T07:34:35;98421.88;;;30.29;48.17
31225;BME280;17847;31.524;74.366;2024-03-23T07:37:03;98413.69;;;30.29;47.75
31225;BME280;17847;31.524;74.366;2024-03-23T07:39:31;98413.34;;;30.40;48.51
31225;BME280;17847;31.524;74.366;2024-03-23T07:42:01;98412.19;;;30.49;51.13
31225;BME280;17847;31.524;74.366;2024-03-23T07:44:29;98403.94;;;30.58;48.16
31225;BME280;17847;31.524;74.366;2024-03-23T07:47:00;98406.31;;;30.59;46.83
31225;BME280;17847;31.524;74.366;2024-03-23T07:49:28;98405.34;;;30.64;43.94
31225;BME280;17847;31.524;74.366;2024-03-23T07:51:56;98400.97;;;30.92;45.57
31225;BME280;17847;31.524;74.366;2024-03-23T07:54:23;98395.81;;;30.91;44.94
31225;BME280;17847;31.524;74.366;2024-03-23T07:56:51;98388.28;;;30.88;45.05
31225;BME280;17847;31.524;74.366;2024-03-23T07:59:19;98385.81;;;30.74;42.18
31225;BME280;17847;31.524;74.366;2024-03-23T08:01:47;98383.34;;;30.81;43.79
31225;BME280;17847;31.524;74.366;2024-03-23T08:04:15;98373.56;;;30.80;45.71
31225;BME280;17847;31.524;74.366;2024-03-23T08:06:42;98364.06;;;30.77;46.85
31225;BME280;17847;31.524;74.366;2024-03-23T08:09:10;98356.06;;;30.72;45.27
31225;BME280;17847;31.524;74.366;2024-03-23T08:11:38;98355.41;;;30.75;39.90
31225;BME280;17847;31.524;74.366;2024-03-23T08:14:06;98349.66;;;30.68;39.58
31225;BME280;17847;31.524;74.366;2024-03-23T08:16:34;98343.72;;;30.87;42.23
31225;BME280;17847;31.524;74.366;2024-03-23T08:19:02;98349.13;;;30.75;37.56
31225;BME280;17847;31.524;74.366;2024-03-23T08:21:35;98330.44;;;30.77;41.23
31225;BME280;17847;31.524;74.366;2024-03-23T08:24:03;98324.66;;;30.58;41.75
31225;BME280;17847;31.524;74.366;2024-03-23T08:26:32;98312.44;;;30.76;42.63
31225;BME280;17847;31.524;74.366;2024-03-23T08:29:00;98320.59;;;30.85;44.61
31225;BME280;17847;31.524;74.366;2024-03-23T08:31:31;98321.78;;;30.75;47.71
31225;BME280;17847;31.524;74.366;2024-03-23T08:33:59;98318.09;;;30.50;46.48
31225;BME280;17847;31.524;74.366;2024-03-23T08:36:27;98314.44;;;30.46;43.68
31225;BME280;17847;31.524;74.366;2024-03-23T08:38:55;98305.44;;;30.46;42.62
31225;BME280;17847;31.524;74.366;2024-03-23T08:41:22;98301.13;;;30.45;45.80
31225;BME280;17847;31.524;74.366;2024-03-23T08:43:52;98297.84;;;30.51;43.80
31225;BME280;17847;31.524;74.366;2024-03-23T08:46:19;98289.25;;;30.61;48.39
31225;BME280;17847;31.524;74.366;2024-03-23T08:48:47;98291.63;;;30.63;44.13
31225;BME280;17847;31.524;74.366;2024-03-23T08:51:20;98278.56;;;30.68;41.80
31225;BME280;17847;31.524;74.366;2024-03-23T08:53:47;98287.19;;;30.79;41.06
31225;BME280;17847;31.524;74.366;2024-03-23T08:56:15;98280.41;;;30.76;43.52
31225;BME280;17847;31.524;74.366;2024-03-23T08:58:43;98264.38;;;30.75;45.37
31225;BME280;17847;31.524;74.366;2024-03-23T09:01:12;98266.19;;;30.71;42.45
31225;BME280;17847;31.524;74.366;2024-03-23T09:03:43;98267.03;;;30.63;43.01
31225;BME280;17847;31.524;74.366;2024-03-23T09:06:11;98272.72;;;30.58;41.85
31225;BME280;17847;31.524;74.366;2024-03-23T09:08:40;98275.31;;;30.75;41.93
31225;BME280;17847;31.524;74.366;2024-03-23T09:11:11;98276.03;;;30.63;42.02
31225;BME280;17847;31.524;74.366;2024-03-23T09:13:39;98264.97;;;30.60;43.22
31225;BME280;17847;31.524;74.366;2024-03-23T09:16:08;98265.34;;;30.50;39.51
31225;BME280;17847;31.524;74.366;2024-03-23T09:18:37;98264.16;;;30.59;40.81
31225;BME280;17847;31.524;74.366;2024-03-23T09:21:11;98260.59;;;30.38;38.28
31225;BME280;17847;31.524;74.366;2024-03-23T09:23:46;98265.34;;;30.50;40.92
31225;BME280;17847;31.524;74.366;2024-03-23T09:26:14;98265.34;;;30.50;41.70
31225;BME280;17847;31.524;74.366;2024-03-23T09:28:42;98264.22;;;30.51;40.61
31225;BME280;17847;31.524;74.366;2024-03-23T09:31:10;98268.81;;;30.59;43.49
31225;BME280;17847;31.524;74.366;2024-03-23T09:33:42;98265.34;;;30.50;39.15
31225;BME280;17847;31.524;74.366;2024-03-23T09:36:10;98259.69;;;30.55;42.30
31225;BME280;17847;31.524;74.366;2024-03-23T09:38:37;98254.66;;;30.45;42.67
31225;BME280;17847;31.524;74.366;2024-03-23T09:41:09;98254.53;;;30.32;39.69
31225;BME280;17847;31.524;74.366;2024-03-23T09:43:36;98254.72;;;30.27;39.29
31225;BME280;17847;31.524;74.366;2024-03-23T09:46:04;98260.78;;;30.33;38.67
31225;BME280;17847;31.524;74.366;2024-03-23T09:48:32;98249.19;;;30.36;38.83
31225;BME280;17847;31.524;74.366;2024-03-23T09:51:02;98256.00;;;30.30;42.95
31225;BME280;17847;31.524;74.366;2024-03-23T09:53:31;98261.16;;;30.31;43.19
31225;BME280;17847;31.524;74.366;2024-03-23T09:55:59;98255.69;;;30.31;41.17
31225;BME280;17847;31.524;74.366;2024-03-23T09:58:27;98260.72;;;30.21;40.80
31225;BME280;17847;31.524;74.366;2024-03-23T10:00:54;98256.44;;;30.11;41.59
31225;BME280;17847;31.524;74.366;2024-03-23T10:03:23;98246.19;;;30.08;40.26
31225;BME280;17847;31.524;74.366;2024-03-23T10:06:03;98240.38;;;30.10;40.22
31225;BME280;17847;31.524;74.366;2024-03-23T10:08:32;98243.59;;;30.12;42.18
31225;BME280;17847;31.524;74.366;2024-03-23T10:11:15;98245.84;;;30.10;41.25
31225;BME280;17847;31.524;74.366;2024-03-23T10:13:44;98255.13;;;30.17;39.93
31225;BME280;17847;31.524;74.366;2024-03-23T10:16:23;98240.28;;;30.27;41.76
31225;BME280;17847;31.524;74.366;2024-03-23T10:18:51;98245.75;;;30.27;38.17
31225;BME280;17847;31.524;74.366;2024-03-23T10:21:19;98242.41;;;30.21;40.19
31225;BME280;17847;31.524;74.366;2024-03-23T10:23:47;98243.72;;;30.15;38.33
31225;BME280;17847;31.524;74.366;2024-03-23T10:26:20;98235.06;;;30.13;39.96
31225;BME280;17847;31.524;74.366;2024-03-23T10:28:59;98231.72;;;30.08;39.10
31225;BME280;17847;31.524;74.366;2024-03-23T10:31:35;98232.34;;;30.13;41.04
31225;BME280;17847;31.524;74.366;2024-03-23T10:34:08;98225.47;;;30.07;41.55
31225;BME280;17847;31.524;74.366;2024-03-23T10:36:38;98228.25;;;29.99;42.72
31225;BME280;17847;31.524;74.366;2024-03-23T10:39:08;98228.56;;;29.97;42.11
31225;BME280;17847;31.524;74.366;2024-03-23T10:41:37;98221.53;;;29.96;42.13
31225;BME280;17847;31.524;74.366;2024-03-23T10:44:07;98227.97;;;29.92;42.76
31225;BME280;17847;31.524;74.366;2024-03-23T10:46:36;98215.72;;;29.98;43.96
31225;BME280;17847;31.524;74.366;2024-03-23T10:49:04;98225.25;;;29.92;41.83
31225;BME280;17847;31.524;74.366;2024-03-23T10:51:32;98215.59;;;29.85;38.84
31225;BME280;17847;31.524;74.366;2024-03-23T10:54:04;98216.09;;;29.79;37.85
31225;BME280;17847;31.524;74.366;2024-03-23T10:56:35;98214.91;;;29.68;40.65
31225;BME280;17847;31.524;74.366;2024-03-23T10:59:04;98216.06;;;29.58;41.24
31225;BME280;17847;31.524;74.366;2024-03-23T11:01:34;98212.72;;;29.53;39.52
31225;BME280;17847;31.524;74.366;2024-03-23T11:04:02;98211.28;;;29.55;38.29
31225;BME280;17847;31.524;74.366;2024-03-23T11:06:39;98197.13;;;29.53;41.95
31225;BME280;17847;31.524;74.366;2024-03-23T11:09:39;98199.06;;;29.53;42.35
31225;BME280;17847;31.524;74.366;2024-03-23T11:14:51;98199.72;;;29.50;42.89
31225;BME280;17847;31.524;74.366;2024-03-23T11:17:24;98197.19;;;29.44;44.01
31225;BME280;17847;31.524;74.366;2024-03-23T11:19:57;98202.03;;;29.30;47.96
31225;BME280;17847;31.524;74.366;2024-03-23T11:22:41;98216.97;;;29.33;47.13
31225;BME280;17847;31.524;74.366;2024-03-23T11:25:23;98207.00;;;29.28;48.51
31225;BME280;17847;31.524;74.366;2024-03-23T11:27:53;98194.34;;;29.32;50.04
31225;BME280;17847;31.524;74.366;2024-03-23T11:30:22;98204.28;;;29.28;50.63
31225;BME280;17847;31.524;74.366;2024-03-23T11:32:55;98211.88;;;29.14;51.29
31225;BME280;17847;31.524;74.366;2024-03-23T11:35:33;98200.69;;;28.98;50.74
31225;BME280;17847;31.524;74.366;2024-03-23T11:43:19;98211.59;;;28.81;51.63
31225;BME280;17847;31.524;74.366;2024-03-23T11:45:49;98217.06;;;28.81;50.65
31225;BME280;17847;31.524;74.366;2024-03-23T11:48:23;98197.53;;;28.79;51.47
31225;BME280;17847;31.524;74.366;2024-03-23T11:50:55;98208.56;;;28.83;51.20
31225;BME280;17847;31.524;74.366;2024-03-23T11:53:25;98202.81;;;28.76;52.00
31225;BME280;17847;31.524;74.366;2024-03-23T11:55:58;98201.34;;;28.70;52.07
31225;BME280;17847;31.524;74.366;2024-03-23T11:58:27;98196.56;;;28.58;54.15
31225;BME280;17847;31.524;74.366;2024-03-23T12:00:59;98199.91;;;28.46;53.51
31225;BME280;17847;31.524;74.366;2024-03-23T12:03:30;98203.44;;;28.38;54.22
31225;BME280;17847;31.524;74.366;2024-03-23T12:06:00;98201.38;;;28.27;53.41
31225;BME280;17847;31.524;74.366;2024-03-23T12:08:33;98199.75;;;28.17;55.27
31225;BME280;17847;31.524;74.366;2024-03-23T12:11:17;98194.00;;;28.10;55.89
31225;BME280;17847;31.524;74.366;2024-03-23T12:13:45;98197.66;;;28.05;56.18
31225;BME280;17847;31.524;74.366;2024-03-23T12:16:18;98191.25;;;28.01;56.73
31225;BME280;17847;31.524;74.366;2024-03-23T12:18:48;98200.66;;;27.95;56.81
31225;BME280;17847;31.524;74.366;2024-03-23T12:21:19;98191.69;;;27.86;58.21
31225;BME280;17847;31.524;74.366;2024-03-23T12:23:49;98193.75;;;27.81;58.31
31225;BME280;17847;31.524;74.366;2024-03-23T12:26:17;98195.63;;;27.72;57.47
31225;BME280;17847;31.524;74.366;2024-03-23T12:28:45;98191.94;;;27.67;60.19
31225;BME280;17847;31.524;74.366;2024-03-23T12:31:13;98187.16;;;27.64;60.21
31225;BME280;17847;31.524;74.366;2024-03-23T12:33:41;98188.91;;;27.60;58.04
31225;BME280;17847;31.524;74.366;2024-03-23T12:36:09;98194.31;;;27.52;56.81
31225;BME280;17847;31.524;74.366;2024-03-23T12:38:37;98196.63;;;27.45;56.12
31225;BME280;17847;31.524;74.366;2024-03-23T12:41:08;98197.28;;;27.42;55.32
31225;BME280;17847;31.524;74.366;2024-03-23T12:43:37;98195.34;;;27.34;54.96
31225;BME280;17847;31.524;74.366;2024-03-23T12:46:05;98194.00;;;27.22;54.68
31225;BME280;17847;31.524;74.366;2024-03-23T12:48:35;98188.84;;;27.12;54.91
31225;BME280;17847;31.524;74.366;2024-03-23T12:51:03;98185.44;;;27.07;54.53
31225;BME280;17847;31.524;74.366;2024-03-23T12:53:31;98199.00;;;26.98;56.84
31225;BME280;17847;31.524;74.366;2024-03-23T12:55:58;98191.91;;;26.89;53.65
31225;BME280;17847;31.524;74.366;2024-03-23T12:58:26;98198.69;;;26.77;52.08
31225;BME280;17847;31.524;74.366;2024-03-23T13:00:54;98199.75;;;26.68;52.83
31225;BME280;17847;31.524;74.366;2024-03-23T13:03:21;98206.09;;;26.63;52.24
31225;BME280;17847;31.524;74.366;2024-03-23T13:05:52;98207.84;;;26.59;54.03
31225;BME280;17847;31.524;74.366;2024-03-23T13:08:20;98202.81;;;26.53;56.55
31225;BME280;17847;31.524;74.366;2024-03-23T13:10:52;98205.75;;;26.43;57.46
31225;BME280;17847;31.524;74.366;2024-03-23T13:13:20;98211.13;;;26.34;55.43
31225;BME280;17847;31.524;74.366;2024-03-23T13:15:51;98209.31;;;26.29;58.00
31225;BME280;17847;31.524;74.366;2024-03-23T13:18:22;98215.19;;;26.23;57.60
31225;BME280;17847;31.524;74.366;2024-03-23T13:20:50;98215.28;;;26.18;58.96
31225;BME280;17847;31.524;74.366;2024-03-23T13:23:18;98206.75;;;26.11;58.99
31225;BME280;17847;31.524;74.366;2024-03-23T13:25:52;98215.00;;;26.06;58.23
31225;BME280;17847;31.524;74.366;2024-03-23T13:28:21;98212.41;;;26.01;61.91
31225;BME280;17847;31.524;74.366;2024-03-23T13:30:55;98204.19;;;25.92;60.90
31225;BME280;17847;31.524;74.366;2024-03-23T13:33:23;98218.13;;;25.85;61.33
31225;BME280;17847;31.524;74.366;2024-03-23T13:35:52;98216.66;;;25.79;60.76
31225;BME280;17847;31.524;74.366;2024-03-23T13:38:23;98213.94;;;25.79;63.48
31225;BME280;17847;31.524;74.366;2024-03-23T13:40:59;98220.56;;;25.73;64.40
31225;BME280;17847;31.524;74.366;2024-03-23T13:43:27;98222.28;;;25.69;66.80
31225;BME280;17847;31.524;74.366;2024-03-23T13:45:59;98235.13;;;25.64;68.83
31225;BME280;17847;31.524;74.366;2024-03-23T13:48:30;98232.84;;;25.57;70.51
31225;BME280;17847;31.524;74.366;2024-03-23T13:51:02;98232.63;;;25.54;71.24
31225;BME280;17847;31.524;74.366;2024-03-23T13:53:31;98231.38;;;25.46;73.50
31225;BME280;17847;31.524;74.366;2024-03-23T13:56:02;98224.75;;;25.38;72.95
31225;BME280;17847;31.524;74.366;2024-03-23T13:58:30;98227.84;;;25.32;73.81
31225;BME280;17847;31.524;74.366;2024-03-23T14:00:59;98233.69;;;25.25;76.96